sensor_id;sensor_type;location;lat;lon;timestamp;temperature;humidity
33761;DHT22;20084;47.912;19.044;2023-06-22T00:01:48;21.80;99.90
33761;DHT22;20084;47.912;19.044;2023-06-22T00:04:15;21.70;99.90
33761;DHT22;20084;47.912;19.044;2023-06-22T00:06:40;21.70;99.90
33761;DHT22;20084;47.912;19.044;2023-06-22T00:09:06;21.70;99.90
33761;DHT22;20084;47.912;19.044;2023-06-22T00:11:33;21.70;99.90
33761;DHT22;20084;47.912;19.044;2023-06-22T00:13:59;21.80;99.90
33761;DHT22;20084;47.912;19.044;2023-06-22T00:16:25;21.70;99.90
33761;DHT22;20084;47.912;19.044;2023-06-22T00:18:50;21.60;99.90
33761;DHT22;20084;47.912;19.044;2023-06-22T00:21:16;21.70;99.90
33761;DHT22;20084;47.912;19.044;2023-06-22T00:23:42;21.70;99.90
33761;DHT22;20084;47.912;19.044;2023-06-22T00:26:08;21.60;99.90
33761;DHT22;20084;47.912;19.044;2023-06-22T00:28:34;21.60;99.90
33761;DHT22;20084;47.912;19.044;2023-06-22T00:30:59;21.50;99.90
33761;DHT22;20084;47.912;19.044;2023-06-22T00:33:26;21.50;99.90
33761;DHT22;20084;47.912;19.044;2023-06-22T00:35:53;21.50;99.90
33761;DHT22;20084;47.912;19.044;2023-06-22T00:38:19;21.50;99.90
33761;DHT22;20084;47.912;19.044;2023-06-22T00:40:46;21.50;99.90
33761;DHT22;20084;47.912;19.044;2023-06-22T00:43:11;21.50;99.90
33761;DHT22;20084;47.912;19.044;2023-06-22T00:45:38;21.50;99.90
33761;DHT22;20084;47.912;19.044;2023-06-22T00:48:05;21.50;99.90
33761;DHT22;20084;47.912;19.044;2023-06-22T00:50:33;21.30;99.90
33761;DHT22;20084;47.912;19.044;2023-06-22T00:53:06;21.30;99.90
33761;DHT22;20084;47.912;19.044;2023-06-22T00:55:37;21.30;99.90
33761;DHT22;20084;47.912;19.044;2023-06-22T00:58:07;21.30;99.90
33761;DHT22;20084;47.912;19.044;2023-06-22T01:00:36;21.30;99.90
33761;DHT22;20084;47.912;19.044;2023-06-22T01:03:02;21.30;99.90
33761;DHT22;20084;47.912;19.044;2023-06-22T01:05:28;21.30;99.90
33761;DHT22;20084;47.912;19.044;2023-06-22T01:11:02;21.30;99.90
33761;DHT22;20084;47.912;19.044;2023-06-22T01:16:25;21.30;99.90
33761;DHT22;20084;47.912;19.044;2023-06-22T01:18:55;21.30;99.90
33761;DHT22;20084;47.912;19.044;2023-06-22T01:21:22;21.30;99.90
33761;DHT22;20084;47.912;19.044;2023-06-22T01:24:23;21.30;99.90
33761;DHT22;20084;47.912;19.044;2023-06-22T01:27:04;21.30;99.90
33761;DHT22;20084;47.912;19.044;2023-06-22T01:29:34;21.40;99.90
33761;DHT22;20084;47.912;19.044;2023-06-22T01:32:01;21.40;99.90
33761;DHT22;20084;47.912;19.044;2023-06-22T01:34:31;21.40;99.90
33761;DHT22;20084;47.912;19.044;2023-06-22T01:36:59;21.20;99.90
33761;DHT22;20084;47.912;19.044;2023-06-22T01:39:26;21.10;99.90
33761;DHT22;20084;47.912;19.044;2023-06-22T01:41:52;21.10;99.90
33761;DHT22;20084;47.912;19.044;2023-06-22T01:44:19;21.10;99.90
33761;DHT22;20084;47.912;19.044;2023-06-22T01:46:45;21.10;99.90
33761;DHT22;20084;47.912;19.044;2023-06-22T01:49:11;21.10;99.90
33761;DHT22;20084;47.912;19.044;2023-06-22T01:51:37;21.00;99.90
33761;DHT22;20084;47.912;19.044;2023-06-22T01:54:05;21.00;99.90
33761;DHT22;20084;47.912;19.044;2023-06-22T01:56:32;20.90;99.90
33761;DHT22;20084;47.912;19.044;2023-06-22T02:01:33;20.90;99.90
33761;DHT22;20084;47.912;19.044;2023-06-22T02:04:12;21.00;99.90
33761;DHT22;20084;47.912;19.044;2023-06-22T02:06:39;21.00;99.90
33761;DHT22;20084;47.912;19.044;2023-06-22T02:09:09;20.90;99.90
33761;DHT22;20084;47.912;19.044;2023-06-22T02:11:37;20.90;99.90
33761;DHT22;20084;47.912;19.044;2023-06-22T02:14:04;20.90;99.90
33761;DHT22;20084;47.912;19.044;2023-06-22T02:16:32;21.00;99.90
33761;DHT22;20084;47.912;19.044;2023-06-22T02:19:01;21.00;99.90
33761;DHT22;20084;47.912;19.044;2023-06-22T02:21:29;21.10;99.90
33761;DHT22;20084;47.912;19.044;2023-06-22T02:23:54;21.00;99.90
33761;DHT22;20084;47.912;19.044;2023-06-22T02:26:20;21.10;99.90
33761;DHT22;20084;47.912;19.044;2023-06-22T02:28:46;21.10;99.90
33761;DHT22;20084;47.912;19.044;2023-06-22T02:31:11;21.20;99.90
33761;DHT22;20084;47.912;19.044;2023-06-22T02:33:37;21.20;99.90
33761;DHT22;20084;47.912;19.044;2023-06-22T02:36:03;21.20;99.90
33761;DHT22;20084;47.912;19.044;2023-06-22T02:38:31;21.20;99.90
33761;DHT22;20084;47.912;19.044;2023-06-22T02:40:58;21.20;99.90
33761;DHT22;20084;47.912;19.044;2023-06-22T02:43:24;21.20;99.90
33761;DHT22;20084;47.912;19.044;2023-06-22T02:45:50;21.10;99.90
33761;DHT22;20084;47.912;19.044;2023-06-22T02:48:16;21.10;99.90
33761;DHT22;20084;47.912;19.044;2023-06-22T02:50:41;21.00;99.90
33761;DHT22;20084;47.912;19.044;2023-06-22T02:53:07;21.00;99.90
33761;DHT22;20084;47.912;19.044;2023-06-22T02:55:32;21.00;99.90
33761;DHT22;20084;47.912;19.044;2023-06-22T02:57:58;21.00;99.90
33761;DHT22;20084;47.912;19.044;2023-06-22T03:00:25;21.00;99.90
33761;DHT22;20084;47.912;19.044;2023-06-22T03:02:56;21.00;99.90
33761;DHT22;20084;47.912;19.044;2023-06-22T03:05:22;21.00;99.90
33761;DHT22;20084;47.912;19.044;2023-06-22T03:07:48;21.10;99.90
33761;DHT22;20084;47.912;19.044;2023-06-22T03:10:14;21.00;99.90
33761;DHT22;20084;47.912;19.044;2023-06-22T03:12:41;21.00;99.90
33761;DHT22;20084;47.912;19.044;2023-06-22T03:15:11;20.90;99.90
33761;DHT22;20084;47.912;19.044;2023-06-22T03:17:38;20.90;99.90
33761;DHT22;20084;47.912;19.044;2023-06-22T03:20:05;20.90;99.90
33761;DHT22;20084;47.912;19.044;2023-06-22T03:22:40;20.90;99.90
33761;DHT22;20084;47.912;19.044;2023-06-22T03:25:09;20.90;99.90
33761;DHT22;20084;47.912;19.044;2023-06-22T03:27:36;21.00;99.90
33761;DHT22;20084;47.912;19.044;2023-06-22T03:30:03;21.00;99.90
33761;DHT22;20084;47.912;19.044;2023-06-22T03:32:28;21.00;99.90
33761;DHT22;20084;47.912;19.044;2023-06-22T03:34:54;21.10;99.90
33761;DHT22;20084;47.912;19.044;2023-06-22T03:37:20;21.10;99.90
33761;DHT22;20084;47.912;19.044;2023-06-22T03:39:45;21.10;99.90
33761;DHT22;20084;47.912;19.044;2023-06-22T03:42:11;21.10;99.90
33761;DHT22;20084;47.912;19.044;2023-06-22T03:44:36;21.10;99.90
33761;DHT22;20084;47.912;19.044;2023-06-22T03:47:05;21.10;99.90
33761;DHT22;20084;47.912;19.044;2023-06-22T03:49:33;21.20;99.90
33761;DHT22;20084;47.912;19.044;2023-06-22T03:52:00;21.10;99.90
33761;DHT22;20084;47.912;19.044;2023-06-22T03:54:26;21.20;99.90
33761;DHT22;20084;47.912;19.044;2023-06-22T03:56:53;21.20;99.90
33761;DHT22;20084;47.912;19.044;2023-06-22T03:59:18;21.10;99.90
33761;DHT22;20084;47.912;19.044;2023-06-22T04:01:44;21.20;99.90
33761;DHT22;20084;47.912;19.044;2023-06-22T04:04:10;21.20;99.90
33761;DHT22;20084;47.912;19.044;2023-06-22T04:06:35;21.20;99.90
33761;DHT22;20084;47.912;19.044;2023-06-22T04:09:01;21.20;99.90
33761;DHT22;20084;47.912;19.044;2023-06-22T04:11:27;21.20;99.90
33761;DHT22;20084;47.912;19.044;2023-06-22T04:13:52;21.20;99.90
33761;DHT22;20084;47.912;19.044;2023-06-22T04:16:19;21.10;99.90
33761;DHT22;20084;47.912;19.044;2023-06-22T04:18:44;21.20;99.90
33761;DHT22;20084;47.912;19.044;2023-06-22T04:21:10;21.20;99.90
33761;DHT22;20084;47.912;19.044;2023-06-22T04:23:36;21.20;99.90
33761;DHT22;20084;47.912;19.044;2023-06-22T04:26:01;21.30;99.90
33761;DHT22;20084;47.912;19.044;2023-06-22T04:28:27;21.30;99.90
33761;DHT22;20084;47.912;19.044;2023-06-22T04:30:53;21.30;99.90
33761;DHT22;20084;47.912;19.044;2023-06-22T04:33:22;21.30;99.90
33761;DHT22;20084;47.912;19.044;2023-06-22T04:35:48;21.40;99.90
33761;DHT22;20084;47.912;19.044;2023-06-22T04:38:14;21.40;99.90
33761;DHT22;20084;47.912;19.044;2023-06-22T04:40:40;21.40;99.90
33761;DHT22;20084;47.912;19.044;2023-06-22T04:43:05;21.50;99.90
33761;DHT22;20084;47.912;19.044;2023-06-22T04:45:32;21.50;99.90
33761;DHT22;20084;47.912;19.044;2023-06-22T04:47:58;21.60;99.90
33761;DHT22;20084;47.912;19.044;2023-06-22T04:50:24;21.60;99.90
33761;DHT22;20084;47.912;19.044;2023-06-22T04:52:50;21.70;99.90
33761;DHT22;20084;47.912;19.044;2023-06-22T04:55:17;21.80;99.90
33761;DHT22;20084;47.912;19.044;2023-06-22T04:57:47;21.90;99.90
33761;DHT22;20084;47.912;19.044;2023-06-22T05:00:23;21.90;99.90
33761;DHT22;20084;47.912;19.044;2023-06-22T05:02:49;22.00;99.90
33761;DHT22;20084;47.912;19.044;2023-06-22T05:05:15;22.00;99.90
33761;DHT22;20084;47.912;19.044;2023-06-22T05:07:46;22.10;99.90
33761;DHT22;20084;47.912;19.044;2023-06-22T05:10:14;22.10;99.90
33761;DHT22;20084;47.912;19.044;2023-06-22T05:12:41;22.20;99.90
33761;DHT22;20084;47.912;19.044;2023-06-22T05:15:10;22.20;99.90
33761;DHT22;20084;47.912;19.044;2023-06-22T05:17:36;22.30;99.90
33761;DHT22;20084;47.912;19.044;2023-06-22T05:20:07;22.30;99.90
33761;DHT22;20084;47.912;19.044;2023-06-22T05:22:32;22.40;99.90
33761;DHT22;20084;47.912;19.044;2023-06-22T05:24:58;22.40;99.90
33761;DHT22;20084;47.912;19.044;2023-06-22T05:27:24;22.50;99.90
33761;DHT22;20084;47.912;19.044;2023-06-22T05:29:49;22.50;99.90
33761;DHT22;20084;47.912;19.044;2023-06-22T05:32:15;22.60;99.90
33761;DHT22;20084;47.912;19.044;2023-06-22T05:34:40;22.60;99.90
33761;DHT22;20084;47.912;19.044;2023-06-22T05:37:06;22.60;99.90
33761;DHT22;20084;47.912;19.044;2023-06-22T05:39:34;22.60;99.90
33761;DHT22;20084;47.912;19.044;2023-06-22T05:42:04;22.70;99.90
33761;DHT22;20084;47.912;19.044;2023-06-22T05:44:30;22.70;99.90
33761;DHT22;20084;47.912;19.044;2023-06-22T05:46:55;22.80;99.90
33761;DHT22;20084;47.912;19.044;2023-06-22T05:49:21;22.90;99.90
33761;DHT22;20084;47.912;19.044;2023-06-22T05:51:48;22.90;99.90
33761;DHT22;20084;47.912;19.044;2023-06-22T05:54:13;23.00;99.90
33761;DHT22;20084;47.912;19.044;2023-06-22T05:56:41;23.00;99.90
33761;DHT22;20084;47.912;19.044;2023-06-22T05:59:06;23.00;99.90
33761;DHT22;20084;47.912;19.044;2023-06-22T06:01:32;23.10;99.90
33761;DHT22;20084;47.912;19.044;2023-06-22T06:04:02;23.20;99.90
33761;DHT22;20084;47.912;19.044;2023-06-22T06:06:29;23.20;99.90
33761;DHT22;20084;47.912;19.044;2023-06-22T06:08:55;23.30;99.90
33761;DHT22;20084;47.912;19.044;2023-06-22T06:11:22;23.40;99.90
33761;DHT22;20084;47.912;19.044;2023-06-22T06:13:47;23.50;99.90
33761;DHT22;20084;47.912;19.044;2023-06-22T06:16:13;23.60;99.90
33761;DHT22;20084;47.912;19.044;2023-06-22T06:18:39;23.60;99.90
33761;DHT22;20084;47.912;19.044;2023-06-22T06:21:04;23.70;99.90
33761;DHT22;20084;47.912;19.044;2023-06-22T06:23:30;23.80;99.90
33761;DHT22;20084;47.912;19.044;2023-06-22T06:25:55;23.80;99.90
33761;DHT22;20084;47.912;19.044;2023-06-22T06:28:22;23.90;99.90
33761;DHT22;20084;47.912;19.044;2023-06-22T06:30:47;23.90;99.90
33761;DHT22;20084;47.912;19.044;2023-06-22T06:33:13;24.00;99.90
33761;DHT22;20084;47.912;19.044;2023-06-22T06:35:39;24.00;99.90
33761;DHT22;20084;47.912;19.044;2023-06-22T06:38:05;24.10;99.90
33761;DHT22;20084;47.912;19.044;2023-06-22T06:40:30;24.10;99.90
33761;DHT22;20084;47.912;19.044;2023-06-22T06:42:56;24.20;99.90
33761;DHT22;20084;47.912;19.044;2023-06-22T06:45:22;24.30;99.90
33761;DHT22;20084;47.912;19.044;2023-06-22T06:47:48;24.40;99.90
33761;DHT22;20084;47.912;19.044;2023-06-22T06:50:15;24.50;99.90
33761;DHT22;20084;47.912;19.044;2023-06-22T06:52:40;24.60;99.90
33761;DHT22;20084;47.912;19.044;2023-06-22T06:55:07;24.70;99.90
33761;DHT22;20084;47.912;19.044;2023-06-22T06:57:34;24.80;99.90
33761;DHT22;20084;47.912;19.044;2023-06-22T07:00:00;24.80;99.90
33761;DHT22;20084;47.912;19.044;2023-06-22T07:02:26;24.90;99.90
33761;DHT22;20084;47.912;19.044;2023-06-22T07:04:53;25.00;99.90
33761;DHT22;20084;47.912;19.044;2023-06-22T07:07:21;25.10;99.90
33761;DHT22;20084;47.912;19.044;2023-06-22T07:09:46;25.20;99.90
33761;DHT22;20084;47.912;19.044;2023-06-22T07:12:12;25.30;99.90
33761;DHT22;20084;47.912;19.044;2023-06-22T07:14:38;25.40;99.90
33761;DHT22;20084;47.912;19.044;2023-06-22T07:17:04;25.50;99.90
33761;DHT22;20084;47.912;19.044;2023-06-22T07:19:29;25.50;99.90
33761;DHT22;20084;47.912;19.044;2023-06-22T07:21:57;25.50;99.90
33761;DHT22;20084;47.912;19.044;2023-06-22T07:24:23;25.50;99.90
33761;DHT22;20084;47.912;19.044;2023-06-22T07:26:50;25.60;99.90
33761;DHT22;20084;47.912;19.044;2023-06-22T07:29:17;25.70;99.90
33761;DHT22;20084;47.912;19.044;2023-06-22T07:31:44;25.80;99.90
33761;DHT22;20084;47.912;19.044;2023-06-22T07:34:10;25.80;99.90
33761;DHT22;20084;47.912;19.044;2023-06-22T07:36:36;25.90;99.90
33761;DHT22;20084;47.912;19.044;2023-06-22T07:39:02;25.90;99.90
33761;DHT22;20084;47.912;19.044;2023-06-22T07:41:29;25.90;99.90
33761;DHT22;20084;47.912;19.044;2023-06-22T07:43:55;26.00;99.90
33761;DHT22;20084;47.912;19.044;2023-06-22T07:46:20;26.10;99.90
33761;DHT22;20084;47.912;19.044;2023-06-22T07:48:46;26.20;99.90
33761;DHT22;20084;47.912;19.044;2023-06-22T07:51:11;26.20;99.90
33761;DHT22;20084;47.912;19.044;2023-06-22T07:53:41;26.20;99.90
33761;DHT22;20084;47.912;19.044;2023-06-22T07:56:09;26.30;99.90
33761;DHT22;20084;47.912;19.044;2023-06-22T07:58:35;26.30;99.90
33761;DHT22;20084;47.912;19.044;2023-06-22T08:01:01;26.40;99.90
33761;DHT22;20084;47.912;19.044;2023-06-22T08:03:27;26.40;99.90
33761;DHT22;20084;47.912;19.044;2023-06-22T08:05:53;26.50;99.90
33761;DHT22;20084;47.912;19.044;2023-06-22T08:08:18;26.50;99.90
33761;DHT22;20084;47.912;19.044;2023-06-22T08:10:44;26.50;99.90
33761;DHT22;20084;47.912;19.044;2023-06-22T08:13:10;26.60;99.90
33761;DHT22;20084;47.912;19.044;2023-06-22T08:15:36;26.60;99.90
33761;DHT22;20084;47.912;19.044;2023-06-22T08:18:01;26.60;99.90
33761;DHT22;20084;47.912;19.044;2023-06-22T08:20:27;26.60;99.90
33761;DHT22;20084;47.912;19.044;2023-06-22T08:22:55;26.70;99.90
33761;DHT22;20084;47.912;19.044;2023-06-22T08:25:21;26.70;99.90
33761;DHT22;20084;47.912;19.044;2023-06-22T08:27:47;26.80;99.90
33761;DHT22;20084;47.912;19.044;2023-06-22T08:30:14;26.80;99.90
33761;DHT22;20084;47.912;19.044;2023-06-22T08:32:40;26.80;99.90
33761;DHT22;20084;47.912;19.044;2023-06-22T08:35:06;26.90;99.90
33761;DHT22;20084;47.912;19.044;2023-06-22T08:37:33;26.90;99.90
33761;DHT22;20084;47.912;19.044;2023-06-22T08:40:02;26.90;99.90
33761;DHT22;20084;47.912;19.044;2023-06-22T08:42:33;26.90;99.90
33761;DHT22;20084;47.912;19.044;2023-06-22T08:44:59;26.90;99.90
33761;DHT22;20084;47.912;19.044;2023-06-22T08:47:25;27.00;99.90
33761;DHT22;20084;47.912;19.044;2023-06-22T08:49:50;27.00;99.90
33761;DHT22;20084;47.912;19.044;2023-06-22T08:52:17;27.00;99.90
33761;DHT22;20084;47.912;19.044;2023-06-22T08:54:43;27.10;99.90
33761;DHT22;20084;47.912;19.044;2023-06-22T08:57:08;27.10;99.90
33761;DHT22;20084;47.912;19.044;2023-06-22T08:59:34;27.20;99.90
33761;DHT22;20084;47.912;19.044;2023-06-22T09:02:00;27.20;99.90
33761;DHT22;20084;47.912;19.044;2023-06-22T09:04:25;27.20;99.90
33761;DHT22;20084;47.912;19.044;2023-06-22T09:06:51;27.30;99.90
33761;DHT22;20084;47.912;19.044;2023-06-22T09:09:18;27.30;99.90
33761;DHT22;20084;47.912;19.044;2023-06-22T09:11:44;27.40;99.90
33761;DHT22;20084;47.912;19.044;2023-06-22T09:14:10;27.40;99.90
33761;DHT22;20084;47.912;19.044;2023-06-22T09:16:36;27.40;99.90
33761;DHT22;20084;47.912;19.044;2023-06-22T09:19:01;27.50;99.90
33761;DHT22;20084;47.912;19.044;2023-06-22T09:21:27;27.50;99.90
33761;DHT22;20084;47.912;19.044;2023-06-22T09:23:53;27.50;99.90
33761;DHT22;20084;47.912;19.044;2023-06-22T09:26:19;27.50;99.90
33761;DHT22;20084;47.912;19.044;2023-06-22T09:28:45;27.50;99.90
33761;DHT22;20084;47.912;19.044;2023-06-22T09:31:11;27.50;99.90
33761;DHT22;20084;47.912;19.044;2023-06-22T09:33:37;27.50;99.90
33761;DHT22;20084;47.912;19.044;2023-06-22T09:36:06;27.50;99.90
33761;DHT22;20084;47.912;19.044;2023-06-22T09:38:38;27.60;99.90
33761;DHT22;20084;47.912;19.044;2023-06-22T09:41:04;27.60;99.90
33761;DHT22;20084;47.912;19.044;2023-06-22T09:43:31;27.70;99.90
33761;DHT22;20084;47.912;19.044;2023-06-22T09:45:57;27.70;99.90
33761;DHT22;20084;47.912;19.044;2023-06-22T09:48:23;27.80;99.90
33761;DHT22;20084;47.912;19.044;2023-06-22T09:50:49;27.90;99.90
33761;DHT22;20084;47.912;19.044;2023-06-22T09:53:15;27.90;99.90
33761;DHT22;20084;47.912;19.044;2023-06-22T09:55:40;28.00;99.90
33761;DHT22;20084;47.912;19.044;2023-06-22T09:58:06;28.00;99.90
33761;DHT22;20084;47.912;19.044;2023-06-22T10:00:31;28.00;99.90
33761;DHT22;20084;47.912;19.044;2023-06-22T10:02:57;28.00;99.90
33761;DHT22;20084;47.912;19.044;2023-06-22T10:05:23;28.10;99.90
33761;DHT22;20084;47.912;19.044;2023-06-22T10:07:50;28.10;99.90
33761;DHT22;20084;47.912;19.044;2023-06-22T10:10:15;28.20;99.90
33761;DHT22;20084;47.912;19.044;2023-06-22T10:12:47;28.40;99.90
33761;DHT22;20084;47.912;19.044;2023-06-22T10:15:14;28.60;99.90
33761;DHT22;20084;47.912;19.044;2023-06-22T10:17:40;28.60;99.90
33761;DHT22;20084;47.912;19.044;2023-06-22T10:20:07;28.70;99.90
33761;DHT22;20084;47.912;19.044;2023-06-22T10:22:43;28.70;99.90
33761;DHT22;20084;47.912;19.044;2023-06-22T10:25:11;28.80;99.90
33761;DHT22;20084;47.912;19.044;2023-06-22T10:27:37;28.80;99.90
33761;DHT22;20084;47.912;19.044;2023-06-22T10:30:09;28.90;99.90
33761;DHT22;20084;47.912;19.044;2023-06-22T10:32:37;29.00;99.90
33761;DHT22;20084;47.912;19.044;2023-06-22T10:35:03;29.10;99.90
33761;DHT22;20084;47.912;19.044;2023-06-22T10:37:28;29.20;99.90
33761;DHT22;20084;47.912;19.044;2023-06-22T10:39:54;29.20;99.90
33761;DHT22;20084;47.912;19.044;2023-06-22T10:42:20;29.30;99.90
33761;DHT22;20084;47.912;19.044;2023-06-22T10:44:46;29.40;99.90
33761;DHT22;20084;47.912;19.044;2023-06-22T10:47:11;29.40;99.90
33761;DHT22;20084;47.912;19.044;2023-06-22T10:49:38;29.50;99.90
33761;DHT22;20084;47.912;19.044;2023-06-22T10:52:06;29.50;99.90
33761;DHT22;20084;47.912;19.044;2023-06-22T10:54:32;29.40;99.90
33761;DHT22;20084;47.912;19.044;2023-06-22T10:56:59;29.40;99.90
33761;DHT22;20084;47.912;19.044;2023-06-22T10:59:25;29.40;99.90
33761;DHT22;20084;47.912;19.044;2023-06-22T11:01:51;29.60;99.90
33761;DHT22;20084;47.912;19.044;2023-06-22T11:04:17;29.70;99.90
33761;DHT22;20084;47.912;19.044;2023-06-22T11:06:43;29.80;99.90
33761;DHT22;20084;47.912;19.044;2023-06-22T11:09:09;29.80;99.90
33761;DHT22;20084;47.912;19.044;2023-06-22T11:11:34;29.70;99.90
33761;DHT22;20084;47.912;19.044;2023-06-22T11:14:00;29.80;99.90
33761;DHT22;20084;47.912;19.044;2023-06-22T11:16:26;29.80;99.90
33761;DHT22;20084;47.912;19.044;2023-06-22T11:18:51;29.80;99.90
33761;DHT22;20084;47.912;19.044;2023-06-22T11:21:17;29.80;99.90
33761;DHT22;20084;47.912;19.044;2023-06-22T11:23:42;29.90;99.90
33761;DHT22;20084;47.912;19.044;2023-06-22T11:26:08;29.90;99.90
33761;DHT22;20084;47.912;19.044;2023-06-22T11:28:34;29.90;99.90
33761;DHT22;20084;47.912;19.044;2023-06-22T11:30:59;29.90;99.90
33761;DHT22;20084;47.912;19.044;2023-06-22T11:33:25;29.90;99.90
33761;DHT22;20084;47.912;19.044;2023-06-22T11:35:51;29.90;99.90
33761;DHT22;20084;47.912;19.044;2023-06-22T11:38:16;29.80;99.90
33761;DHT22;20084;47.912;19.044;2023-06-22T11:40:42;30.00;99.90
33761;DHT22;20084;47.912;19.044;2023-06-22T11:43:08;30.10;99.90
33761;DHT22;20084;47.912;19.044;2023-06-22T11:45:33;30.10;99.90
33761;DHT22;20084;47.912;19.044;2023-06-22T11:47:59;30.10;99.90
33761;DHT22;20084;47.912;19.044;2023-06-22T11:50:25;30.10;99.90
33761;DHT22;20084;47.912;19.044;2023-06-22T11:52:50;30.10;99.90
33761;DHT22;20084;47.912;19.044;2023-06-22T11:55:18;30.10;99.90
33761;DHT22;20084;47.912;19.044;2023-06-22T11:57:55;30.10;99.90
33761;DHT22;20084;47.912;19.044;2023-06-22T12:00:21;30.20;99.90
33761;DHT22;20084;47.912;19.044;2023-06-22T12:02:52;30.20;99.90
33761;DHT22;20084;47.912;19.044;2023-06-22T12:05:19;30.20;99.90
33761;DHT22;20084;47.912;19.044;2023-06-22T12:07:46;30.20;99.90
33761;DHT22;20084;47.912;19.044;2023-06-22T12:10:12;30.30;99.90
33761;DHT22;20084;47.912;19.044;2023-06-22T12:12:38;30.30;99.90
33761;DHT22;20084;47.912;19.044;2023-06-22T12:15:04;30.10;99.90
33761;DHT22;20084;47.912;19.044;2023-06-22T12:17:30;30.20;99.90
33761;DHT22;20084;47.912;19.044;2023-06-22T12:19:55;30.20;99.90
33761;DHT22;20084;47.912;19.044;2023-06-22T12:22:21;30.20;99.90
33761;DHT22;20084;47.912;19.044;2023-06-22T12:24:47;30.20;99.90
33761;DHT22;20084;47.912;19.044;2023-06-22T12:27:12;30.10;99.90
33761;DHT22;20084;47.912;19.044;2023-06-22T12:29:41;30.00;99.90
33761;DHT22;20084;47.912;19.044;2023-06-22T12:32:07;29.70;99.90
33761;DHT22;20084;47.912;19.044;2023-06-22T12:34:33;29.40;99.90
33761;DHT22;20084;47.912;19.044;2023-06-22T12:36:58;29.40;99.90
33761;DHT22;20084;47.912;19.044;2023-06-22T12:39:24;29.30;99.90
33761;DHT22;20084;47.912;19.044;2023-06-22T12:41:49;29.40;99.90
33761;DHT22;20084;47.912;19.044;2023-06-22T12:44:15;29.50;99.90
33761;DHT22;20084;47.912;19.044;2023-06-22T12:46:41;29.50;99.90
33761;DHT22;20084;47.912;19.044;2023-06-22T12:49:06;29.60;99.90
33761;DHT22;20084;47.912;19.044;2023-06-22T12:51:32;29.80;99.90
33761;DHT22;20084;47.912;19.044;2023-06-22T12:53:59;29.90;99.90
33761;DHT22;20084;47.912;19.044;2023-06-22T12:56:25;29.90;99.90
33761;DHT22;20084;47.912;19.044;2023-06-22T12:58:50;29.80;99.90
33761;DHT22;20084;47.912;19.044;2023-06-22T13:01:16;29.80;99.90
33761;DHT22;20084;47.912;19.044;2023-06-22T13:03:43;29.80;99.90
33761;DHT22;20084;47.912;19.044;2023-06-22T13:06:09;29.80;99.90
33761;DHT22;20084;47.912;19.044;2023-06-22T13:08:34;29.80;99.90
33761;DHT22;20084;47.912;19.044;2023-06-22T13:11:00;29.80;99.90
33761;DHT22;20084;47.912;19.044;2023-06-22T13:13:26;30.00;99.90
33761;DHT22;20084;47.912;19.044;2023-06-22T13:15:53;30.10;99.90
33761;DHT22;20084;47.912;19.044;2023-06-22T13:18:19;30.20;99.90
33761;DHT22;20084;47.912;19.044;2023-06-22T13:20:45;30.30;99.90
33761;DHT22;20084;47.912;19.044;2023-06-22T13:23:11;30.30;99.90
33761;DHT22;20084;47.912;19.044;2023-06-22T13:25:36;30.20;99.90
33761;DHT22;20084;47.912;19.044;2023-06-22T13:28:02;30.20;99.90
33761;DHT22;20084;47.912;19.044;2023-06-22T13:30:28;30.20;99.90
33761;DHT22;20084;47.912;19.044;2023-06-22T13:32:54;30.20;99.90
33761;DHT22;20084;47.912;19.044;2023-06-22T13:35:20;30.30;99.90
33761;DHT22;20084;47.912;19.044;2023-06-22T13:37:45;30.30;99.90
33761;DHT22;20084;47.912;19.044;2023-06-22T13:40:11;30.30;99.90
33761;DHT22;20084;47.912;19.044;2023-06-22T13:42:37;30.30;99.90
33761;DHT22;20084;47.912;19.044;2023-06-22T13:45:03;30.40;99.90
33761;DHT22;20084;47.912;19.044;2023-06-22T13:47:30;30.40;99.90
33761;DHT22;20084;47.912;19.044;2023-06-22T13:49:56;30.30;99.90
33761;DHT22;20084;47.912;19.044;2023-06-22T13:52:23;30.30;99.90
33761;DHT22;20084;47.912;19.044;2023-06-22T13:54:48;30.40;99.90
33761;DHT22;20084;47.912;19.044;2023-06-22T13:57:14;30.50;99.90
33761;DHT22;20084;47.912;19.044;2023-06-22T13:59:40;30.60;99.90
33761;DHT22;20084;47.912;19.044;2023-06-22T14:02:06;30.70;99.90
33761;DHT22;20084;47.912;19.044;2023-06-22T14:04:32;30.70;99.90
33761;DHT22;20084;47.912;19.044;2023-06-22T14:06:58;30.80;99.90
33761;DHT22;20084;47.912;19.044;2023-06-22T14:09:23;30.80;99.90
33761;DHT22;20084;47.912;19.044;2023-06-22T14:11:49;30.80;99.90
33761;DHT22;20084;47.912;19.044;2023-06-22T14:14:15;30.70;99.90
33761;DHT22;20084;47.912;19.044;2023-06-22T14:16:40;30.70;99.90
33761;DHT22;20084;47.912;19.044;2023-06-22T14:19:06;30.80;99.90
33761;DHT22;20084;47.912;19.044;2023-06-22T14:21:32;30.90;99.90
33761;DHT22;20084;47.912;19.044;2023-06-22T14:23:57;31.00;99.90
33761;DHT22;20084;47.912;19.044;2023-06-22T14:26:23;30.90;99.90
33761;DHT22;20084;47.912;19.044;2023-06-22T14:28:48;30.90;99.90
33761;DHT22;20084;47.912;19.044;2023-06-22T14:31:19;31.00;99.90
33761;DHT22;20084;47.912;19.044;2023-06-22T14:33:47;31.00;99.90
33761;DHT22;20084;47.912;19.044;2023-06-22T14:36:14;31.00;99.90
33761;DHT22;20084;47.912;19.044;2023-06-22T14:38:39;30.90;99.90
33761;DHT22;20084;47.912;19.044;2023-06-22T14:41:05;30.80;99.90
33761;DHT22;20084;47.912;19.044;2023-06-22T14:43:31;30.80;99.90
33761;DHT22;20084;47.912;19.044;2023-06-22T14:45:56;30.80;99.90
33761;DHT22;20084;47.912;19.044;2023-06-22T14:48:22;30.80;99.90
33761;DHT22;20084;47.912;19.044;2023-06-22T14:50:48;30.70;99.90
33761;DHT22;20084;47.912;19.044;2023-06-22T14:53:13;30.70;99.90
33761;DHT22;20084;47.912;19.044;2023-06-22T14:55:40;30.80;99.90
33761;DHT22;20084;47.912;19.044;2023-06-22T14:58:06;30.80;99.90
33761;DHT22;20084;47.912;19.044;2023-06-22T15:00:31;30.80;99.90
33761;DHT22;20084;47.912;19.044;2023-06-22T15:02:57;30.80;99.90
33761;DHT22;20084;47.912;19.044;2023-06-22T15:05:25;30.80;99.90
33761;DHT22;20084;47.912;19.044;2023-06-22T15:07:51;30.80;99.90
33761;DHT22;20084;47.912;19.044;2023-06-22T15:10:17;30.90;99.90
33761;DHT22;20084;47.912;19.044;2023-06-22T15:12:42;30.80;99.90
33761;DHT22;20084;47.912;19.044;2023-06-22T15:15:08;30.80;99.80
33761;DHT22;20084;47.912;19.044;2023-06-22T15:17:34;30.80;99.90
33761;DHT22;20084;47.912;19.044;2023-06-22T15:20:00;30.80;99.90